Time;durP1;ratioP1;P1;durP2;ratioP2;P2;SDS_P1;SDS_P2;PMS_P1;PMS_P2;Temp;Humidity;BMP_temperature;BMP_pressure;BME280_temperature;BME280_humidity;BME280_pressure;Samples;Min_cycle;Max_cycle;Signal;HPM_P1;HPM_P2
2022/03/21 00:01:20;;;;;;;0.40;0.40;;;;;;;29.99;17.58;102881.75;10504244;28;20040;-82
2022/03/21 00:06:22;;;;;;;1.02;0.98;;;;;;;29.58;18.66;102891.59;10514549;28;20035;-83
2022/03/21 00:11:24;;;;;;;0.10;0.10;;;;;;;29.15;18.87;102881.91;10511109;28;20503;-83
2022/03/21 00:16:26;;;;;;;0.00;0.00;;;;;;;29.70;18.41;102878.00;10513359;28;20150;-83
2022/03/21 00:21:28;;;;;;;0.00;0.00;;;;;;;28.84;18.81;102886.03;10533675;28;20057;-83
2022/03/21 00:26:30;;;;;;;0.00;0.00;;;;;;;32.41;15.83;102863.94;10521252;28;20040;-83
2022/03/21 00:31:31;;;;;;;0.00;0.00;;;;;;;32.78;15.05;102862.63;10515772;28;20072;-82
2022/03/21 00:36:34;;;;;;;1.58;1.48;;;;;;;32.72;14.91;102863.69;10502322;28;20084;-82
2022/03/21 00:41:48;;;;;;;0.00;0.00;;;;;;;33.92;13.98;102867.94;10524996;28;20596;-82
2022/03/21 00:46:51;;;;;;;0.60;0.43;;;;;;;30.41;16.75;102893.13;10521998;28;20126;-82
2022/03/21 00:51:52;;;;;;;7.80;7.22;;;;;;;30.19;17.40;102893.69;10512284;28;20143;-82
2022/03/21 00:56:54;;;;;;;0.00;0.00;;;;;;;32.82;15.19;102890.06;10503548;28;20052;-82
2022/03/21 01:01:56;;;;;;;0.00;0.00;;;;;;;32.99;14.50;102886.75;10515683;28;20127;-82
2022/03/21 01:06:58;;;;;;;0.00;0.00;;;;;;;31.41;16.62;102895.63;10519869;28;20506;-82
2022/03/21 01:12:03;;;;;;;0.00;0.00;;;;;;;31.94;15.53;102897.50;10554878;28;20044;-82
2022/03/21 01:17:05;;;;;;;0.00;0.00;;;;;;;31.74;15.61;102894.63;10515173;28;20047;-82
2022/03/21 01:22:07;;;;;;;0.00;0.00;;;;;;;31.74;15.64;102894.63;10548859;28;20040;-82
2022/03/21 01:27:09;;;;;;;0.00;0.00;;;;;;;30.42;17.23;102903.72;10513779;28;20562;-83
2022/03/21 01:32:11;;;;;;;0.00;0.00;;;;;;;31.19;16.50;102898.06;10528030;28;20068;-83
2022/03/21 01:37:13;;;;;;;0.00;0.00;;;;;;;30.64;16.65;102890.72;10547064;28;20055;-83
2022/03/21 01:42:14;;;;;;;6.07;4.93;;;;;;;32.42;15.14;102884.38;10511512;28;20033;-83
2022/03/21 01:47:17;;;;;;;0.10;0.10;;;;;;;31.78;15.38;102913.13;10516869;28;20135;-83
2022/03/21 01:52:20;;;;;;;0.00;0.00;;;;;;;29.90;17.12;102914.72;10528925;28;20517;-83
2022/03/21 01:57:22;;;;;;;0.00;0.00;;;;;;;30.75;16.62;102908.19;10532060;28;20127;-83
2022/03/21 02:02:24;;;;;;;0.15;0.15;;;;;;;30.28;17.08;102906.72;10512632;28;20054;-83
2022/03/21 02:07:26;;;;;;;0.00;0.00;;;;;;;31.18;16.62;102906.97;10513626;28;20495;-83
2022/03/21 02:12:29;;;;;;;0.00;0.00;;;;;;;31.48;16.22;102915.81;10526766;28;20047;-83
2022/03/21 02:17:36;;;;;;;0.00;0.00;;;;;;;31.36;16.84;102915.31;10504255;28;20146;-83
2022/03/21 02:22:58;;;;;;;0.00;0.00;;;;;;;32.23;15.32;102917.00;10527555;28;20121;-82
2022/03/21 02:28:03;;;;;;;0.00;0.00;;;;;;;30.83;16.85;102911.50;10542168;28;20575;-82
2022/03/21 02:33:05;;;;;;;0.00;0.00;;;;;;;31.07;16.72;102904.59;10511256;28;20119;-83
2022/03/21 02:38:08;;;;;;;0.00;0.00;;;;;;;31.98;15.65;102914.25;10547319;28;20179;-83
2022/03/21 02:43:10;;;;;;;0.00;0.00;;;;;;;31.93;15.63;102914.41;10513574;28;20044;-82
2022/03/21 02:48:13;;;;;;;0.00;0.00;;;;;;;32.33;15.97;102903.34;10509758;28;20064;-83
2022/03/21 02:53:16;;;;;;;0.00;0.00;;;;;;;32.37;15.65;102899.66;10512583;28;20054;-82
2022/03/21 02:58:18;;;;;;;0.00;0.00;;;;;;;33.37;14.44;102897.78;10528160;28;20044;-83
2022/03/21 03:03:20;;;;;;;0.00;0.00;;;;;;;32.86;15.22;102897.91;10529518;28;20128;-83
2022/03/21 03:08:21;;;;;;;0.00;0.00;;;;;;;30.01;18.29;102914.50;10508626;28;20048;-83
2022/03/21 03:13:23;;;;;;;0.00;0.00;;;;;;;32.00;16.12;102909.75;10546073;28;20178;-83
2022/03/21 03:18:25;;;;;;;0.10;0.10;;;;;;;31.23;16.71;102910.38;10511724;28;20093;-83
2022/03/21 03:23:30;;;;;;;0.00;0.00;;;;;;;30.95;17.21;102900.50;10507036;28;20137;-83
2022/03/21 03:28:31;;;;;;;0.00;0.00;;;;;;;32.43;15.51;102902.13;10531108;28;20071;-82
2022/03/21 03:33:47;;;;;;;0.00;0.00;;;;;;;32.23;16.20;102906.34;10539614;28;20130;-83
2022/03/21 03:38:51;;;;;;;0.00;0.00;;;;;;;30.35;17.93;102915.41;10546321;28;20044;-84
2022/03/21 03:43:52;;;;;;;0.00;0.00;;;;;;;23.04;25.61;102943.38;10511342;28;20575;-83
2022/03/21 03:48:54;;;;;;;0.00;0.00;;;;;;;18.91;33.50;102946.72;10526172;28;20040;-83
2022/03/21 03:53:56;;;;;;;0.03;0.03;;;;;;;20.06;31.01;102944.00;10520583;28;20113;-83
2022/03/21 03:58:57;;;;;;;0.00;0.00;;;;;;;19.06;32.92;102937.50;10544674;28;20047;-83
2022/03/21 04:04:00;;;;;;;0.00;0.00;;;;;;;19.10;31.87;102936.75;10511366;28;20056;-83
2022/03/21 04:09:02;;;;;;;0.80;0.73;;;;;;;15.25;39.50;102954.25;10506924;28;20558;-83
2022/03/21 04:14:04;;;;;;;0.00;0.00;;;;;;;19.10;32.44;102948.06;10516320;28;20046;-83
2022/03/21 04:19:06;;;;;;;0.00;0.00;;;;;;;16.52;35.18;102958.88;10530456;28;20117;-82
2022/03/21 04:24:08;;;;;;;0.00;0.00;;;;;;;15.38;36.67;102972.06;10525632;28;20044;-82
2022/03/21 04:29:10;;;;;;;0.00;0.00;;;;;;;16.68;33.95;102971.59;10534179;28;20040;-82
2022/03/21 04:34:11;;;;;;;0.00;0.00;;;;;;;17.35;33.58;102953.78;10522266;28;20051;-82
2022/03/21 04:39:13;;;;;;;0.00;0.00;;;;;;;17.44;32.46;102956.69;10520007;28;20418;-82
2022/03/21 04:44:14;;;;;;;0.00;0.00;;;;;;;16.57;35.22;102959.97;10519185;28;20167;-83
2022/03/21 04:49:16;;;;;;;0.57;0.57;;;;;;;17.65;33.32;102965.97;10531940;28;20044;-82
2022/03/21 04:54:18;;;;;;;0.00;0.00;;;;;;;17.84;31.30;102970.00;10531132;28;20126;-82
2022/03/21 04:59:19;;;;;;;0.00;0.00;;;;;;;16.98;32.61;102973.47;10534966;28;20054;-82
2022/03/21 05:04:22;;;;;;;0.00;0.00;;;;;;;16.86;31.59;102966.13;10535646;28;20451;-82
2022/03/21 05:09:24;;;;;;;0.00;0.00;;;;;;;16.80;33.03;102972.00;10519586;28;20059;-82
2022/03/21 05:14:26;;;;;;;0.00;0.00;;;;;;;17.59;31.12;102965.81;10534811;28;20055;-82
2022/03/21 05:19:28;;;;;;;0.00;0.00;;;;;;;16.65;32.81;102967.19;10552027;28;20524;-81
2022/03/21 05:40:35;;;;;;;0.00;0.00;;;;;;;16.78;31.85;102981.50;10512340;28;20499;-82
2022/03/21 05:45:36;;;;;;;0.22;0.22;;;;;;;14.28;37.78;102986.56;10530780;28;20579;-82
2022/03/21 05:50:39;;;;;;;0.00;0.00;;;;;;;14.91;37.16;102983.22;10512905;28;20079;-82
2022/03/21 05:55:40;;;;;;;0.30;0.30;;;;;;;15.91;33.70;102984.47;10518109;28;20044;-82
2022/03/21 06:00:42;;;;;;;0.00;0.00;;;;;;;16.28;33.25;102991.03;10507015;28;20493;-82
2022/03/21 06:05:44;;;;;;;0.57;0.57;;;;;;;16.65;31.28;102989.69;10513650;28;20071;-82
2022/03/21 06:10:47;;;;;;;0.00;0.00;;;;;;;13.90;36.12;102998.69;10511513;28;20418;-82
2022/03/21 06:15:48;;;;;;;0.00;0.00;;;;;;;15.09;34.15;102989.97;10541225;28;20068;-82
2022/03/21 06:20:50;;;;;;;0.00;0.00;;;;;;;15.73;33.08;102998.53;10513225;28;20052;-82
2022/03/21 06:25:53;;;;;;;0.00;0.00;;;;;;;16.21;32.45;103005.53;10526346;28;20075;-82
2022/03/21 06:30:56;;;;;;;0.00;0.00;;;;;;;16.72;31.55;103009.03;10538957;28;20059;-81
2022/03/21 06:36:00;;;;;;;0.90;0.90;;;;;;;16.37;33.22;103016.50;10529536;28;20135;-82
2022/03/21 06:41:04;;;;;;;0.00;0.00;;;;;;;16.42;34.19;103014.94;10533416;28;20051;-79
2022/03/21 06:52:20;;;;;;;0.00;0.00;;;;;;;15.89;35.49;103036.41;10511264;28;20457;-82
2022/03/21 06:57:21;;;;;;;0.00;0.00;;;;;;;16.14;35.95;103033.03;10512635;28;20040;-82
2022/03/21 07:02:23;;;;;;;0.00;0.00;;;;;;;17.73;34.02;103020.94;10531297;28;20067;-82
2022/03/21 07:07:26;;;;;;;0.00;0.00;;;;;;;18.23;33.64;103023.28;10533212;28;20040;-82
2022/03/21 07:12:27;;;;;;;0.00;0.00;;;;;;;18.49;33.55;103023.13;10533879;28;20071;-83
2022/03/21 07:17:29;;;;;;;0.00;0.00;;;;;;;18.25;34.42;103026.81;10513443;28;20051;-84
2022/03/21 07:22:31;;;;;;;0.00;0.00;;;;;;;18.60;34.26;103024.28;10533132;28;20075;-83
2022/03/21 07:27:33;;;;;;;0.00;0.00;;;;;;;18.76;35.03;103028.19;10532623;28;20131;-84
2022/03/21 07:32:35;;;;;;;0.82;0.75;;;;;;;19.21;35.00;103018.84;10527898;28;20447;-83
2022/03/21 07:37:47;;;;;;;0.00;0.00;;;;;;;20.33;33.73;103031.72;10532885;28;20487;-83
2022/03/21 07:42:49;;;;;;;0.00;0.00;;;;;;;21.25;32.82;103027.19;10532216;28;20135;-83
2022/03/21 07:47:51;;;;;;;0.10;0.10;;;;;;;21.86;30.92;103028.94;10515388;28;20052;-83
2022/03/21 07:52:54;;;;;;;0.00;0.00;;;;;;;22.24;31.29;103032.88;10528945;28;20043;-83
2022/03/21 07:57:56;;;;;;;0.10;0.10;;;;;;;22.70;31.43;103028.09;10515347;28;20052;-83
2022/03/21 08:02:58;;;;;;;0.00;0.00;;;;;;;22.48;32.69;103030.53;10535052;28;20136;-84
2022/03/21 08:08:01;;;;;;;0.25;0.25;;;;;;;23.91;29.44;103023.63;10523138;28;20044;-84
2022/03/21 08:13:02;;;;;;;1.15;0.90;;;;;;;24.16;30.72;103027.25;10522195;28;20360;-84
2022/03/21 08:18:06;;;;;;;0.70;0.68;;;;;;;23.25;29.96;103032.06;10522713;28;20490;-84
2022/03/21 08:23:11;;;;;;;0.43;0.20;;;;;;;24.50;29.09;103036.97;10541359;28;20437;-84
2022/03/21 08:28:14;;;;;;;0.00;0.00;;;;;;;24.85;27.57;103031.78;10539332;28;20040;-84
2022/03/21 08:33:15;;;;;;;0.00;0.00;;;;;;;24.87;28.84;103037.03;10540810;28;20048;-84
2022/03/21 08:38:17;;;;;;;0.80;0.80;;;;;;;25.50;27.68;103039.59;10540053;28;20044;-84
2022/03/21 08:43:19;;;;;;;0.00;0.00;;;;;;;26.15;26.06;103027.91;10519952;28;20046;-84
2022/03/21 08:49:23;;;;;;;11.95;6.05;;;;;;;24.28;27.12;103034.31;10503147;28;20062;-84
2022/03/21 08:53:42;;;;;;;0.98;0.98;;;;;;;26.21;26.11;103024.34;10549193;28;20044;-84
2022/03/21 08:58:43;;;;;;;0.10;0.10;;;;;;;25.76;25.72;103028.06;10519669;28;20040;-84
2022/03/21 09:03:49;;;;;;;3.45;2.70;;;;;;;26.14;26.07;103026.16;10518257;28;20043;-84
2022/03/21 09:08:54;;;;;;;28.35;9.80;;;;;;;23.70;28.02;103038.47;10545510;28;20062;-84
2022/03/21 09:13:55;;;;;;;5.88;3.75;;;;;;;24.66;28.65;103036.16;10518700;28;20155;-84
2022/03/21 09:18:57;;;;;;;4.05;1.73;;;;;;;25.58;27.02;103029.00;10520277;28;20059;-84
2022/03/21 09:23:58;;;;;;;0.22;0.22;;;;;;;27.78;22.86;103016.72;10519867;28;20623;-84
2022/03/21 09:29:02;;;;;;;10.13;5.15;;;;;;;25.63;25.74;103016.69;10537667;28;20082;-84
2022/03/21 09:34:04;;;;;;;11.10;4.85;;;;;;;26.31;24.89;103020.75;10519828;28;20063;-84
2022/03/21 09:39:07;;;;;;;1.95;1.00;;;;;;;26.74;24.34;103020.41;10519460;28;20079;-83
2022/03/21 09:44:11;;;;;;;16.25;7.80;;;;;;;26.59;24.45;103016.13;10536819;28;20073;-84
2022/03/21 09:49:16;;;;;;;15.68;7.78;;;;;;;24.86;25.99;103017.72;10536099;28;20101;-84
2022/03/21 09:54:18;;;;;;;15.38;6.93;;;;;;;25.62;24.00;103014.94;10537047;28;20091;-83
2022/03/21 09:59:20;;;;;;;0.35;0.35;;;;;;;28.63;22.19;103006.66;10518600;28;20123;-84
2022/03/21 10:04:21;;;;;;;7.88;4.30;;;;;;;27.24;23.16;103015.56;10535834;28;20044;-84
2022/03/21 10:10:03;;;;;;;5.47;3.00;;;;;;;27.17;24.71;103008.56;10518479;28;20547;-84
2022/03/21 10:15:10;;;;;;;0.45;0.45;;;;;;;27.85;22.36;103013.09;10527651;28;20505;-83
2022/03/21 10:20:15;;;;;;;6.97;4.18;;;;;;;27.31;23.27;103010.19;10518647;28;20040;-84
2022/03/21 10:25:21;;;;;;;25.10;13.98;;;;;;;24.24;25.75;103022.88;10516470;28;20032;-83
2022/03/21 10:30:24;;;;;;;18.90;9.10;;;;;;;25.75;25.15;103006.94;10535548;28;20079;-83
2022/03/21 10:35:28;;;;;;;2.03;1.40;;;;;;;25.99;24.57;103005.94;10550592;28;20048;-83
2022/03/21 10:40:41;;;;;;;1.67;0.93;;;;;;;29.09;20.75;103000.50;10517078;28;20118;-83
2022/03/21 10:45:49;;;;;;;22.77;4.60;;;;;;;28.09;22.35;103003.06;10516320;28;20067;-84
2022/03/21 10:50:54;;;;;;;11.00;5.50;;;;;;;26.68;24.09;103009.88;10534391;28;20044;-83
2022/03/21 10:56:05;;;;;;;14.20;6.88;;;;;;;27.60;22.50;103006.34;10534197;28;20131;-84
2022/03/21 11:01:17;;;;;;;19.00;9.65;;;;;;;26.88;23.35;102998.31;10515872;28;20093;-83
2022/03/21 11:06:19;;;;;;;7.78;2.40;;;;;;;30.39;20.25;102987.09;10515726;28;20058;-84
2022/03/21 11:11:22;;;;;;;8.55;3.10;;;;;;;29.40;20.10;102983.16;10515092;28;20048;-83
2022/03/21 11:16:24;;;;;;;1.90;1.35;;;;;;;29.58;20.29;102987.19;10515139;28;20131;-84
2022/03/21 11:21:26;;;;;;;20.10;10.32;;;;;;;26.46;22.81;102998.63;10515917;28;20130;-83
2022/03/21 11:26:36;;;;;;;0.30;0.30;;;;;;;29.94;20.14;102989.06;10533699;28;20580;-83
2022/03/21 11:32:14;;;;;;;0.32;0.32;;;;;;;30.87;18.10;102982.31;10514800;28;20123;-84
2022/03/21 11:37:34;;;;;;;7.03;3.20;;;;;;;30.82;17.96;102982.50;10532881;28;20081;-85
2022/03/21 11:42:36;;;;;;;24.35;10.98;;;;;;;26.82;22.35;102995.69;10532321;28;20079;-83
2022/03/21 11:47:37;;;;;;;14.43;8.07;;;;;;;27.31;21.73;102986.38;10514952;28;20143;-83
2022/03/21 11:53:12;;;;;;;14.38;7.55;;;;;;;29.49;20.18;102980.28;10514549;28;20078;-83
2022/03/21 11:58:23;;;;;;;23.33;12.93;;;;;;;28.27;21.03;102979.81;10524365;28;20056;-83
2022/03/21 12:03:25;;;;;;;1.55;0.93;;;;;;;30.79;19.10;102963.06;10514253;28;20471;-84
2022/03/21 12:08:34;;;;;;;0.00;0.00;;;;;;;31.78;18.03;102957.56;10533020;28;20050;-83
2022/03/21 12:13:46;;;;;;;1.10;0.65;;;;;;;31.12;19.00;102960.41;10532637;28;20127;-82
2022/03/21 12:19:02;;;;;;;4.85;2.85;;;;;;;30.66;19.35;102952.75;10532638;28;20086;-84
2022/03/21 12:24:14;;;;;;;3.10;2.60;;;;;;;32.15;18.38;102948.34;10532195;28;20552;-83
2022/03/21 12:29:33;;;;;;;3.50;2.60;;;;;;;31.02;19.57;102949.97;10514382;28;20075;-83
2022/03/21 12:34:39;;;;;;;17.95;10.57;;;;;;;28.80;21.12;102955.97;10548025;28;20120;-85
2022/03/21 12:39:46;;;;;;;0.00;0.00;;;;;;;31.00;19.56;102946.50;10532804;28;20040;-84
2022/03/21 12:44:51;;;;;;;0.75;0.47;;;;;;;31.44;18.70;102950.59;10513665;28;20071;-83
2022/03/21 12:49:53;;;;;;;2.33;2.13;;;;;;;30.83;19.04;102943.44;10518028;28;20391;-84
2022/03/21 12:55:00;;;;;;;27.75;9.05;;;;;;;27.96;23.07;102948.50;10538601;28;20055;-83
2022/03/21 13:00:15;;;;;;;0.10;0.10;;;;;;;31.68;18.44;102943.66;10539900;28;20050;-83
2022/03/21 13:10:37;;;;;;;1.35;0.90;;;;;;;31.23;18.73;102930.78;10518702;28;20113;-82
2022/03/21 13:15:40;;;;;;;1.23;1.05;;;;;;;31.10;19.45;102931.16;10520442;28;20083;-82
2022/03/21 13:20:46;;;;;;;19.38;10.32;;;;;;;28.48;22.05;102929.09;10519437;28;20071;-82
2022/03/21 13:25:48;;;;;;;0.73;0.43;;;;;;;30.92;19.76;102926.31;10519481;28;20036;-81
2022/03/21 13:30:52;;;;;;;0.10;0.05;;;;;;;30.83;19.09;102920.34;10538005;28;20059;-83
2022/03/21 13:35:58;;;;;;;5.68;2.83;;;;;;;30.41;20.71;102919.72;10536752;28;20097;-82
2022/03/21 13:41:01;;;;;;;1.02;0.93;;;;;;;30.01;19.77;102916.28;10519046;28;20446;-83
2022/03/21 13:46:02;;;;;;;4.03;1.58;;;;;;;30.02;20.09;102908.28;10519549;28;20044;-83
2022/03/21 13:51:18;;;;;;;1.30;0.65;;;;;;;29.81;20.71;102919.38;10518823;28;20159;-82
2022/03/21 13:56:28;;;;;;;2.75;1.70;;;;;;;29.15;21.00;102921.69;10518962;28;20180;-82
2022/03/21 14:01:29;;;;;;;2.58;2.25;;;;;;;29.44;21.07;102919.34;10517632;28;20458;-82
2022/03/21 14:06:31;;;;;;;30.35;9.80;;;;;;;28.01;22.09;102922.78;10537032;28;20063;-81
2022/03/21 14:12:17;;;;;;;10.02;4.80;;;;;;;27.84;21.87;102910.69;10517577;28;20143;-82
2022/03/21 14:17:20;;;;;;;0.20;0.20;;;;;;;30.22;19.33;102905.13;10535963;28;20086;-83
2022/03/21 14:22:21;;;;;;;5.13;2.40;;;;;;;30.57;19.56;102897.13;10534993;28;20044;-82
2022/03/21 14:27:23;;;;;;;20.75;12.70;;;;;;;26.56;25.26;102899.84;10517312;28;20063;-82
2022/03/21 14:32:24;;;;;;;7.10;3.42;;;;;;;29.48;21.00;102895.34;10535091;28;20459;-82
2022/03/21 14:37:26;;;;;;;0.17;0.10;;;;;;;31.32;18.68;102883.44;10521242;28;20116;-81
2022/03/21 14:42:28;;;;;;;1.65;1.20;;;;;;;30.61;18.65;102885.50;10521432;28;20567;-83
2022/03/21 14:47:30;;;;;;;3.60;1.88;;;;;;;29.83;19.42;102885.66;10524294;28;20068;-82
2022/03/21 14:52:33;;;;;;;26.42;9.98;;;;;;;27.97;22.57;102894.59;10526216;28;20411;-82
2022/03/21 14:57:35;;;;;;;4.45;2.80;;;;;;;29.32;21.31;102885.06;10529461;28;20085;-83
2022/03/21 15:02:38;;;;;;;21.55;10.73;;;;;;;28.23;22.78;102895.97;10509869;28;20059;-82
2022/03/21 15:07:39;;;;;;;0.20;0.10;;;;;;;31.98;17.67;102870.75;10508408;28;20040;-83
2022/03/21 15:12:41;;;;;;;4.82;0.90;;;;;;;30.73;18.28;102880.75;10515947;28;20079;-82
2022/03/21 15:17:42;;;;;;;0.00;0.00;;;;;;;32.31;17.07;102867.84;10531252;28;20131;-83
2022/03/21 15:22:45;;;;;;;1.08;0.80;;;;;;;30.08;19.30;102872.72;10508096;28;20044;-83
2022/03/21 15:27:47;;;;;;;2.05;1.17;;;;;;;31.38;17.99;102865.56;10514771;28;20079;-83
2022/03/21 15:32:49;;;;;;;4.65;2.50;;;;;;;30.17;19.36;102868.94;10532683;28;20499;-83
2022/03/21 15:43:13;;;;;;;7.38;4.53;;;;;;;29.33;20.40;102870.88;10532028;28;20127;-82
2022/03/21 15:48:15;;;;;;;3.85;2.28;;;;;;;29.41;19.98;102873.38;10532548;28;20097;-82
2022/03/21 15:53:16;;;;;;;0.00;0.00;;;;;;;30.27;19.78;102870.41;10531979;28;20482;-83
2022/03/21 15:58:24;;;;;;;2.03;0.98;;;;;;;30.81;18.58;102870.75;10513045;28;20449;-83
2022/03/21 16:03:25;;;;;;;15.20;10.23;;;;;;;29.75;21.80;102868.13;10542591;28;20119;-82
2022/03/21 16:08:29;;;;;;;0.55;0.55;;;;;;;30.78;20.36;102865.53;10522170;28;20495;-83
2022/03/21 16:13:31;;;;;;;0.00;0.00;;;;;;;31.83;18.20;102865.03;10530666;28;20040;-83
2022/03/21 16:18:34;;;;;;;0.73;0.68;;;;;;;31.41;18.10;102866.34;10524999;28;20097;-83
2022/03/21 16:23:36;;;;;;;0.00;0.00;;;;;;;32.86;16.94;102860.53;10506733;28;20040;-82
2022/03/21 16:28:39;;;;;;;0.00;0.00;;;;;;;32.61;17.66;102859.66;10518717;28;20091;-83
2022/03/21 16:33:42;;;;;;;0.63;0.63;;;;;;;33.56;15.99;102863.19;10521522;28;20055;-83
2022/03/21 16:38:45;;;;;;;0.00;0.00;;;;;;;33.50;16.06;102856.28;10532070;28;20036;-83
2022/03/21 16:44:07;;;;;;;0.00;0.00;;;;;;;31.56;18.87;102869.44;10533393;28;20071;-83
2022/03/21 16:49:09;;;;;;;0.00;0.00;;;;;;;32.89;17.34;102862.22;10535552;28;20117;-83
2022/03/21 16:54:10;;;;;;;0.00;0.00;;;;;;;32.97;17.71;102854.78;10546506;28;20496;-83
2022/03/21 16:59:12;;;;;;;0.00;0.00;;;;;;;33.10;17.57;102862.31;10536304;28;20036;-83
2022/03/21 17:04:14;;;;;;;0.00;0.00;;;;;;;32.55;17.12;102864.31;10539004;28;20434;-83
2022/03/21 17:09:16;;;;;;;0.00;0.00;;;;;;;32.15;17.86;102868.38;10537031;28;20040;-83
2022/03/21 17:14:20;;;;;;;0.00;0.00;;;;;;;32.05;19.59;102878.47;10529582;28;20546;-83
2022/03/21 17:24:42;;;;;;;0.00;0.00;;;;;;;29.00;21.66;102873.34;10528730;28;20131;-83
2022/03/21 17:29:47;;;;;;;0.00;0.00;;;;;;;30.70;20.17;102874.63;10529206;28;20047;-83
2022/03/21 17:34:49;;;;;;;0.00;0.00;;;;;;;30.50;20.12;102871.56;10512014;28;20054;-83
2022/03/21 17:39:51;;;;;;;0.00;0.00;;;;;;;30.63;19.50;102873.03;10518424;28;20047;-83
2022/03/21 17:44:55;;;;;;;0.00;0.00;;;;;;;30.32;19.79;102873.84;10520965;28;20044;-83
2022/03/21 17:49:57;;;;;;;2.05;1.95;;;;;;;29.98;21.36;102873.84;10536588;28;20044;-83
2022/03/21 17:54:59;;;;;;;0.10;0.10;;;;;;;29.57;21.33;102892.50;10513123;28;20153;-83
2022/03/21 18:00:00;;;;;;;0.40;0.40;;;;;;;29.25;21.28;102891.38;10537333;28;20085;-83
2022/03/21 18:05:02;;;;;;;0.10;0.10;;;;;;;29.39;21.19;102897.28;10518376;28;20483;-83
2022/03/21 18:10:05;;;;;;;0.00;0.00;;;;;;;29.12;21.08;102899.63;10517670;28;20135;-83
2022/03/21 18:15:12;;;;;;;0.00;0.00;;;;;;;30.09;20.00;102898.34;10536379;28;20040;-83
2022/03/21 18:20:15;;;;;;;0.00;0.00;;;;;;;29.26;20.93;102911.72;10535531;28;20083;-83
2022/03/21 18:25:17;;;;;;;0.00;0.00;;;;;;;25.67;25.92;102917.25;10535310;28;20042;-83
2022/03/21 18:30:19;;;;;;;0.00;0.00;;;;;;;28.24;23.01;102918.94;10526109;28;20044;-82
2022/03/21 18:35:21;;;;;;;0.00;0.00;;;;;;;27.98;22.96;102914.88;10510260;28;20048;-82
2022/03/21 18:40:23;;;;;;;0.00;0.00;;;;;;;28.47;21.22;102906.16;10525035;28;20128;-83
2022/03/21 18:45:26;;;;;;;0.00;0.00;;;;;;;28.13;22.29;102927.06;10529176;28;20430;-83
2022/03/21 18:50:30;;;;;;;0.00;0.00;;;;;;;27.62;23.40;102926.03;10528412;28;20087;-84
2022/03/21 18:55:33;;;;;;;0.00;0.00;;;;;;;26.45;25.64;102930.81;10529755;28;20036;-83
2022/03/21 19:00:35;;;;;;;3.10;1.27;;;;;;;25.07;27.51;102939.44;10530476;28;20087;-83
2022/03/21 19:05:38;;;;;;;0.00;0.00;;;;;;;24.49;27.37;102935.09;10530675;28;20051;-84
2022/03/21 19:10:41;;;;;;;0.00;0.00;;;;;;;25.54;26.24;102934.91;10496082;28;20066;-83
2022/03/21 19:15:45;;;;;;;0.38;0.38;;;;;;;26.32;24.91;102937.94;10510906;28;20512;-83
2022/03/21 19:20:48;;;;;;;0.00;0.00;;;;;;;27.19;23.58;102938.00;10530498;28;20479;-83
2022/03/21 19:25:50;;;;;;;0.00;0.00;;;;;;;26.73;24.10;102941.13;10528794;28;20055;-83
2022/03/21 19:30:51;;;;;;;0.00;0.00;;;;;;;26.85;24.11;102943.66;10509018;28;20566;-83
2022/03/21 19:35:54;;;;;;;0.00;0.00;;;;;;;26.72;24.31;102942.00;10529320;28;20063;-83
2022/03/21 19:40:56;;;;;;;0.00;0.00;;;;;;;27.23;23.20;102944.13;10552792;27;20044;-83
2022/03/21 19:45:59;;;;;;;0.20;0.20;;;;;;;27.59;22.30;102946.38;10523999;28;20032;-83
2022/03/21 19:51:00;;;;;;;0.30;0.30;;;;;;;26.35;24.43;102950.25;10528000;28;20051;-83
2022/03/21 19:56:04;;;;;;;0.00;0.00;;;;;;;25.41;25.73;102956.97;10533929;28;20097;-83
2022/03/21 20:01:12;;;;;;;0.00;0.00;;;;;;;25.53;25.36;102956.91;10539868;28;20402;-83
2022/03/21 20:06:14;;;;;;;0.00;0.00;;;;;;;25.34;25.64;102967.50;10541147;28;20044;-83
2022/03/21 20:11:32;;;;;;;0.90;0.22;;;;;;;25.90;25.14;102956.69;10541857;28;20084;-83
2022/03/21 20:16:33;;;;;;;0.13;0.13;;;;;;;25.68;25.35;102961.25;10541739;28;20044;-83
2022/03/21 20:21:35;;;;;;;0.98;0.98;;;;;;;25.69;25.48;102959.47;10541110;28;20479;-83
2022/03/21 20:26:37;;;;;;;0.00;0.00;;;;;;;25.18;25.62;102965.78;10540254;28;20460;-83
2022/03/21 20:31:44;;;;;;;1.08;1.08;;;;;;;25.14;25.51;102969.31;10539453;28;20074;-83
2022/03/21 20:36:46;;;;;;;0.00;0.00;;;;;;;23.95;27.60;102978.03;10522601;28;20059;-83
2022/03/21 20:41:47;;;;;;;0.05;0.05;;;;;;;23.77;28.34;102974.47;10518756;28;20058;-83
2022/03/21 20:46:49;;;;;;;0.00;0.00;;;;;;;24.69;26.46;102972.88;10540296;28;20048;-83
2022/03/21 20:51:52;;;;;;;0.00;0.00;;;;;;;24.32;26.64;102983.38;10521789;28;20035;-83
2022/03/21 20:56:53;;;;;;;0.00;0.00;;;;;;;23.61;27.70;102972.63;10539758;28;20118;-83
2022/03/21 21:01:55;;;;;;;0.00;0.00;;;;;;;24.97;25.93;102967.59;10539341;28;20048;-83
2022/03/21 21:06:57;;;;;;;0.00;0.00;;;;;;;24.81;25.99;102977.28;10521725;28;20052;-83
2022/03/21 21:11:59;;;;;;;0.00;0.00;;;;;;;24.31;27.11;102980.75;10538950;28;20048;-83
2022/03/21 21:17:01;;;;;;;0.00;0.00;;;;;;;24.85;26.49;102975.50;10521462;28;20137;-83
2022/03/21 21:22:03;;;;;;;0.00;0.00;;;;;;;24.22;27.13;102976.38;10536523;28;20044;-83
2022/03/21 21:27:09;;;;;;;0.10;0.10;;;;;;;24.19;26.71;102981.59;10512949;28;20045;-83
2022/03/21 21:32:13;;;;;;;0.13;0.13;;;;;;;24.69;26.10;102978.16;10535217;28;20390;-83
2022/03/21 21:37:15;;;;;;;0.00;0.00;;;;;;;24.22;26.78;102982.50;10533442;28;20040;-83
2022/03/21 21:42:16;;;;;;;0.00;0.00;;;;;;;24.86;25.74;102974.63;10541206;28;20075;-83
2022/03/21 21:47:18;;;;;;;0.08;0.08;;;;;;;24.55;26.15;102979.88;10541261;28;20118;-83
2022/03/21 21:52:19;;;;;;;0.00;0.00;;;;;;;24.55;26.42;102980.78;10530889;28;20101;-83
2022/03/21 21:57:21;;;;;;;0.00;0.00;;;;;;;24.80;25.42;102974.66;10512420;28;20072;-83
2022/03/21 22:02:23;;;;;;;0.08;0.08;;;;;;;24.58;25.92;102972.00;10505442;28;20067;-83
2022/03/21 22:07:26;;;;;;;0.00;0.00;;;;;;;24.49;26.26;102974.63;10502244;28;20143;-83
2022/03/21 22:12:28;;;;;;;0.00;0.00;;;;;;;23.84;27.08;102975.34;10514334;28;20045;-83
2022/03/21 22:17:31;;;;;;;0.00;0.00;;;;;;;21.19;30.72;102986.03;10531512;28;20067;-83
2022/03/21 22:22:33;;;;;;;0.00;0.00;;;;;;;21.90;30.34;102986.13;10522262;28;20490;-83
2022/03/21 22:27:35;;;;;;;0.00;0.00;;;;;;;19.96;33.23;102995.22;10510880;28;20464;-77
2022/03/21 22:32:37;;;;;;;0.00;0.00;;;;;;;19.86;33.40;102999.38;10533415;28;20051;-77
2022/03/21 22:37:38;;;;;;;0.00;0.00;;;;;;;21.94;29.82;102987.03;10518961;28;20523;-78
2022/03/21 22:48:07;;;;;;;0.10;0.10;;;;;;;22.23;28.69;102991.75;10554648;28;20101;-77
2022/03/21 22:53:09;;;;;;;0.00;0.00;;;;;;;21.97;29.49;102981.84;10554172;28;20055;-77
2022/03/21 22:58:11;;;;;;;0.15;0.15;;;;;;;21.73;30.25;102982.44;10538726;28;20075;-77
2022/03/21 23:03:13;;;;;;;0.00;0.00;;;;;;;21.26;30.93;102981.78;10521241;28;20122;-76
2022/03/21 23:08:17;;;;;;;0.00;0.00;;;;;;;22.71;28.63;102986.97;10528986;28;20483;-77
2022/03/21 23:13:18;;;;;;;0.00;0.00;;;;;;;23.32;27.17;102986.53;10535884;28;20600;-77
2022/03/21 23:18:23;;;;;;;0.00;0.00;;;;;;;21.60;29.93;102997.13;10522524;28;20087;-77
2022/03/21 23:23:25;;;;;;;0.00;0.00;;;;;;;21.91;29.21;102982.63;10528796;28;20178;-78
2022/03/21 23:28:29;;;;;;;0.00;0.00;;;;;;;19.32;33.53;102995.59;10544509;28;20040;-78
2022/03/21 23:33:30;;;;;;;0.00;0.00;;;;;;;21.24;30.56;102993.97;10502923;28;20039;-77
2022/03/21 23:38:35;;;;;;;0.00;0.00;;;;;;;21.63;29.64;102984.06;10517635;28;20131;-77
2022/03/21 23:43:36;;;;;;;0.13;0.08;;;;;;;21.69;29.90;102981.50;10553055;28;20063;-77
2022/03/21 23:48:41;;;;;;;0.00;0.00;;;;;;;21.70;29.35;102983.28;10510782;28;20044;-77
2022/03/21 23:53:42;;;;;;;0.00;0.00;;;;;;;21.88;28.63;102985.25;10547178;28;20144;-77
2022/03/21 23:58:44;;;;;;;0.00;0.00;;;;;;;20.64;30.96;102996.47;10506595;28;20495;-78
